Terminal Aerodrome Forecast
Issued by NWS Sioux Falls, SD

Home | Current Version | Previous Version | Text Only | Print | Product List | Glossary On
Versions: 1 2 3 4 5 6 7 8 9 10 11 12 13 14 15 16 17 18 19
000
FTUS43 KFSD 201100
TAFHON
TAF
KHON 201123Z 2012/2112 16010KT P6SM FEW250
     FM201500 19009KT P6SM FEW250
     FM202300 17011KT P6SM SCT035
     FM210500 15007KT P6SM SCT025
     FM211000 14005KT 5SM BR FEW030=

USA.gov is the U.S. government's official web portal to all federal, state and local government web resources and services.